sensor_id;sensor_type;location;lat;lon;timestamp;P1;durP1;ratioP1;P2;durP2;ratioP2
12567;SDS011;6349;50.904;6.136;2024-01-15T00:01:27;15.90;;;9.63;;
12567;SDS011;6349;50.904;6.136;2024-01-15T00:03:28;15.10;;;9.60;;
12567;SDS011;6349;50.904;6.136;2024-01-15T00:05:28;12.87;;;8.60;;
12567;SDS011;6349;50.904;6.136;2024-01-15T00:07:29;15.17;;;9.07;;
12567;SDS011;6349;50.904;6.136;2024-01-15T00:09:29;14.83;;;9.27;;
12567;SDS011;6349;50.904;6.136;2024-01-15T00:11:30;16.43;;;9.17;;
12567;SDS011;6349;50.904;6.136;2024-01-15T00:13:30;12.90;;;8.60;;
12567;SDS011;6349;50.904;6.136;2024-01-15T00:15:31;15.20;;;9.07;;
12567;SDS011;6349;50.904;6.136;2024-01-15T00:17:31;14.60;;;8.43;;
12567;SDS011;6349;50.904;6.136;2024-01-15T00:19:32;16.13;;;9.63;;
12567;SDS011;6349;50.904;6.136;2024-01-15T00:21:32;15.20;;;9.20;;
12567;SDS011;6349;50.904;6.136;2024-01-15T00:23:33;15.30;;;9.70;;
12567;SDS011;6349;50.904;6.136;2024-01-15T00:25:34;14.77;;;8.47;;
12567;SDS011;6349;50.904;6.136;2024-01-15T00:27:34;13.87;;;8.63;;
12567;SDS011;6349;50.904;6.136;2024-01-15T00:29:35;14.93;;;8.90;;
12567;SDS011;6349;50.904;6.136;2024-01-15T00:31:35;16.50;;;9.47;;
12567;SDS011;6349;50.904;6.136;2024-01-15T00:33:36;14.70;;;8.97;;
12567;SDS011;6349;50.904;6.136;2024-01-15T00:35:36;15.07;;;8.97;;
12567;SDS011;6349;50.904;6.136;2024-01-15T00:37:37;14.93;;;8.97;;
12567;SDS011;6349;50.904;6.136;2024-01-15T00:39:38;16.03;;;9.37;;
12567;SDS011;6349;50.904;6.136;2024-01-15T00:41:38;15.40;;;9.53;;
12567;SDS011;6349;50.904;6.136;2024-01-15T00:43:39;14.60;;;9.07;;
12567;SDS011;6349;50.904;6.136;2024-01-15T00:45:40;15.67;;;9.20;;
12567;SDS011;6349;50.904;6.136;2024-01-15T00:47:41;13.80;;;9.00;;
12567;SDS011;6349;50.904;6.136;2024-01-15T00:49:41;15.73;;;9.37;;
12567;SDS011;6349;50.904;6.136;2024-01-15T00:51:42;14.33;;;8.60;;
12567;SDS011;6349;50.904;6.136;2024-01-15T00:53:42;14.33;;;8.93;;
12567;SDS011;6349;50.904;6.136;2024-01-15T00:55:43;13.90;;;8.67;;
12567;SDS011;6349;50.904;6.136;2024-01-15T00:57:44;17.17;;;9.90;;
12567;SDS011;6349;50.904;6.136;2024-01-15T00:59:44;13.07;;;9.20;;
12567;SDS011;6349;50.904;6.136;2024-01-15T01:01:45;13.73;;;8.93;;
12567;SDS011;6349;50.904;6.136;2024-01-15T01:03:46;14.77;;;9.23;;
12567;SDS011;6349;50.904;6.136;2024-01-15T01:05:48;15.67;;;8.57;;
12567;SDS011;6349;50.904;6.136;2024-01-15T01:07:49;14.87;;;8.67;;
12567;SDS011;6349;50.904;6.136;2024-01-15T01:09:50;14.83;;;8.70;;
12567;SDS011;6349;50.904;6.136;2024-01-15T01:11:51;15.03;;;9.07;;
12567;SDS011;6349;50.904;6.136;2024-01-15T01:13:51;14.63;;;8.50;;
12567;SDS011;6349;50.904;6.136;2024-01-15T01:15:52;15.77;;;8.97;;
12567;SDS011;6349;50.904;6.136;2024-01-15T01:17:53;14.37;;;9.10;;
12567;SDS011;6349;50.904;6.136;2024-01-15T01:19:53;14.20;;;9.13;;
12567;SDS011;6349;50.904;6.136;2024-01-15T01:21:54;15.23;;;9.50;;
12567;SDS011;6349;50.904;6.136;2024-01-15T01:23:54;14.77;;;9.00;;
12567;SDS011;6349;50.904;6.136;2024-01-15T01:25:55;15.70;;;9.63;;
12567;SDS011;6349;50.904;6.136;2024-01-15T01:27:55;15.10;;;9.93;;
12567;SDS011;6349;50.904;6.136;2024-01-15T01:29:56;13.37;;;8.33;;
12567;SDS011;6349;50.904;6.136;2024-01-15T01:31:56;19.00;;;9.60;;
12567;SDS011;6349;50.904;6.136;2024-01-15T01:33:57;17.43;;;9.10;;
12567;SDS011;6349;50.904;6.136;2024-01-15T01:35:57;15.07;;;9.27;;
12567;SDS011;6349;50.904;6.136;2024-01-15T01:37:58;14.40;;;8.47;;
12567;SDS011;6349;50.904;6.136;2024-01-15T01:39:58;16.30;;;9.23;;
12567;SDS011;6349;50.904;6.136;2024-01-15T01:41:59;15.20;;;9.53;;
12567;SDS011;6349;50.904;6.136;2024-01-15T01:43:59;15.80;;;9.63;;
12567;SDS011;6349;50.904;6.136;2024-01-15T01:46:01;15.73;;;9.47;;
12567;SDS011;6349;50.904;6.136;2024-01-15T01:48:03;13.97;;;8.90;;
12567;SDS011;6349;50.904;6.136;2024-01-15T01:50:04;19.30;;;9.40;;
12567;SDS011;6349;50.904;6.136;2024-01-15T01:52:05;17.10;;;10.60;;
12567;SDS011;6349;50.904;6.136;2024-01-15T01:54:10;18.00;;;10.53;;
12567;SDS011;6349;50.904;6.136;2024-01-15T01:56:13;18.07;;;9.97;;
12567;SDS011;6349;50.904;6.136;2024-01-15T01:58:14;16.90;;;10.17;;
12567;SDS011;6349;50.904;6.136;2024-01-15T02:00:15;16.77;;;9.77;;
12567;SDS011;6349;50.904;6.136;2024-01-15T02:02:16;18.63;;;10.07;;
12567;SDS011;6349;50.904;6.136;2024-01-15T02:04:18;16.70;;;9.90;;
12567;SDS011;6349;50.904;6.136;2024-01-15T02:06:19;15.30;;;9.37;;
12567;SDS011;6349;50.904;6.136;2024-01-15T02:08:20;13.20;;;9.50;;
12567;SDS011;6349;50.904;6.136;2024-01-15T02:10:20;13.90;;;9.33;;
12567;SDS011;6349;50.904;6.136;2024-01-15T02:12:21;15.47;;;9.23;;
12567;SDS011;6349;50.904;6.136;2024-01-15T02:14:22;14.33;;;8.90;;
12567;SDS011;6349;50.904;6.136;2024-01-15T02:16:22;14.87;;;9.37;;
12567;SDS011;6349;50.904;6.136;2024-01-15T02:18:26;16.67;;;9.20;;
12567;SDS011;6349;50.904;6.136;2024-01-15T02:20:26;15.63;;;9.87;;
12567;SDS011;6349;50.904;6.136;2024-01-15T02:22:27;16.20;;;9.73;;
12567;SDS011;6349;50.904;6.136;2024-01-15T02:24:28;15.10;;;9.73;;
12567;SDS011;6349;50.904;6.136;2024-01-15T02:26:28;14.83;;;10.10;;
12567;SDS011;6349;50.904;6.136;2024-01-15T02:28:29;16.53;;;9.90;;
12567;SDS011;6349;50.904;6.136;2024-01-15T02:30:29;17.33;;;10.10;;
12567;SDS011;6349;50.904;6.136;2024-01-15T02:32:31;16.07;;;10.23;;
12567;SDS011;6349;50.904;6.136;2024-01-15T02:34:32;15.50;;;9.63;;
12567;SDS011;6349;50.904;6.136;2024-01-15T02:36:33;14.47;;;9.50;;
12567;SDS011;6349;50.904;6.136;2024-01-15T02:38:33;15.13;;;9.73;;
12567;SDS011;6349;50.904;6.136;2024-01-15T02:40:34;16.87;;;9.77;;
12567;SDS011;6349;50.904;6.136;2024-01-15T02:42:35;15.57;;;9.87;;
12567;SDS011;6349;50.904;6.136;2024-01-15T02:44:35;15.43;;;9.73;;
12567;SDS011;6349;50.904;6.136;2024-01-15T02:46:36;16.63;;;10.80;;
12567;SDS011;6349;50.904;6.136;2024-01-15T02:48:36;16.47;;;9.60;;
12567;SDS011;6349;50.904;6.136;2024-01-15T02:50:37;14.07;;;9.43;;
12567;SDS011;6349;50.904;6.136;2024-01-15T02:52:38;14.87;;;9.37;;
12567;SDS011;6349;50.904;6.136;2024-01-15T02:54:38;14.97;;;9.10;;
12567;SDS011;6349;50.904;6.136;2024-01-15T02:56:39;15.13;;;9.27;;
12567;SDS011;6349;50.904;6.136;2024-01-15T02:58:39;14.17;;;9.00;;
12567;SDS011;6349;50.904;6.136;2024-01-15T03:00:40;12.90;;;8.70;;
12567;SDS011;6349;50.904;6.136;2024-01-15T03:02:40;13.17;;;8.20;;
12567;SDS011;6349;50.904;6.136;2024-01-15T03:04:44;11.10;;;8.07;;
12567;SDS011;6349;50.904;6.136;2024-01-15T03:06:45;10.60;;;7.40;;
12567;SDS011;6349;50.904;6.136;2024-01-15T03:08:45;9.77;;;6.87;;
12567;SDS011;6349;50.904;6.136;2024-01-15T03:10:46;11.73;;;7.33;;
12567;SDS011;6349;50.904;6.136;2024-01-15T03:12:46;10.53;;;7.60;;
12567;SDS011;6349;50.904;6.136;2024-01-15T03:14:47;12.40;;;7.67;;
12567;SDS011;6349;50.904;6.136;2024-01-15T03:16:47;11.73;;;7.60;;
12567;SDS011;6349;50.904;6.136;2024-01-15T03:18:48;9.87;;;6.97;;
12567;SDS011;6349;50.904;6.136;2024-01-15T03:20:48;11.70;;;7.30;;
12567;SDS011;6349;50.904;6.136;2024-01-15T03:22:49;11.10;;;7.40;;
12567;SDS011;6349;50.904;6.136;2024-01-15T03:24:50;10.63;;;7.37;;
12567;SDS011;6349;50.904;6.136;2024-01-15T03:26:50;10.77;;;7.47;;
12567;SDS011;6349;50.904;6.136;2024-01-15T03:28:51;10.23;;;7.07;;
12567;SDS011;6349;50.904;6.136;2024-01-15T03:30:52;10.23;;;6.77;;
12567;SDS011;6349;50.904;6.136;2024-01-15T03:32:52;11.30;;;7.67;;
12567;SDS011;6349;50.904;6.136;2024-01-15T03:34:53;9.73;;;7.03;;
12567;SDS011;6349;50.904;6.136;2024-01-15T03:36:53;11.13;;;7.90;;
12567;SDS011;6349;50.904;6.136;2024-01-15T03:38:54;11.47;;;7.60;;
12567;SDS011;6349;50.904;6.136;2024-01-15T03:40:54;11.57;;;7.80;;
12567;SDS011;6349;50.904;6.136;2024-01-15T03:42:55;12.07;;;8.17;;
12567;SDS011;6349;50.904;6.136;2024-01-15T03:44:56;11.80;;;7.63;;
12567;SDS011;6349;50.904;6.136;2024-01-15T03:46:56;11.17;;;7.53;;
12567;SDS011;6349;50.904;6.136;2024-01-15T03:48:58;10.50;;;7.60;;
12567;SDS011;6349;50.904;6.136;2024-01-15T03:50:58;11.73;;;7.93;;
12567;SDS011;6349;50.904;6.136;2024-01-15T03:52:59;11.10;;;7.60;;
12567;SDS011;6349;50.904;6.136;2024-01-15T03:54:59;10.47;;;7.40;;
12567;SDS011;6349;50.904;6.136;2024-01-15T03:57:00;13.40;;;8.40;;
12567;SDS011;6349;50.904;6.136;2024-01-15T03:59:00;12.07;;;8.27;;
12567;SDS011;6349;50.904;6.136;2024-01-15T04:01:01;11.50;;;8.07;;
12567;SDS011;6349;50.904;6.136;2024-01-15T04:03:01;10.13;;;7.90;;
12567;SDS011;6349;50.904;6.136;2024-01-15T04:05:02;11.67;;;8.00;;
12567;SDS011;6349;50.904;6.136;2024-01-15T04:07:03;14.60;;;8.50;;
12567;SDS011;6349;50.904;6.136;2024-01-15T04:09:04;11.60;;;7.63;;
12567;SDS011;6349;50.904;6.136;2024-01-15T04:11:05;12.60;;;7.60;;
12567;SDS011;6349;50.904;6.136;2024-01-15T04:13:06;10.47;;;7.07;;
12567;SDS011;6349;50.904;6.136;2024-01-15T04:15:07;10.53;;;7.33;;
12567;SDS011;6349;50.904;6.136;2024-01-15T04:17:07;9.87;;;6.57;;
12567;SDS011;6349;50.904;6.136;2024-01-15T04:19:08;11.50;;;6.20;;
12567;SDS011;6349;50.904;6.136;2024-01-15T04:21:08;10.37;;;6.17;;
12567;SDS011;6349;50.904;6.136;2024-01-15T04:23:09;8.70;;;5.67;;
12567;SDS011;6349;50.904;6.136;2024-01-15T04:25:10;7.40;;;5.80;;
12567;SDS011;6349;50.904;6.136;2024-01-15T04:27:10;10.33;;;6.63;;
12567;SDS011;6349;50.904;6.136;2024-01-15T04:29:11;7.93;;;5.77;;
12567;SDS011;6349;50.904;6.136;2024-01-15T04:31:20;8.53;;;6.33;;
12567;SDS011;6349;50.904;6.136;2024-01-15T04:33:24;9.13;;;6.13;;
12567;SDS011;6349;50.904;6.136;2024-01-15T04:35:25;8.47;;;6.20;;
12567;SDS011;6349;50.904;6.136;2024-01-15T04:37:25;7.63;;;6.23;;
12567;SDS011;6349;50.904;6.136;2024-01-15T04:39:26;7.90;;;5.90;;
12567;SDS011;6349;50.904;6.136;2024-01-15T04:41:26;9.50;;;6.50;;
12567;SDS011;6349;50.904;6.136;2024-01-15T04:43:27;7.13;;;6.03;;
12567;SDS011;6349;50.904;6.136;2024-01-15T04:45:27;9.07;;;6.63;;
12567;SDS011;6349;50.904;6.136;2024-01-15T04:47:28;8.97;;;6.50;;
12567;SDS011;6349;50.904;6.136;2024-01-15T04:49:29;9.23;;;6.90;;
12567;SDS011;6349;50.904;6.136;2024-01-15T04:51:30;10.93;;;7.00;;
12567;SDS011;6349;50.904;6.136;2024-01-15T04:53:30;10.00;;;7.07;;
12567;SDS011;6349;50.904;6.136;2024-01-15T04:55:31;9.23;;;7.10;;
12567;SDS011;6349;50.904;6.136;2024-01-15T04:57:31;9.67;;;7.03;;
12567;SDS011;6349;50.904;6.136;2024-01-15T04:59:32;12.13;;;7.57;;
12567;SDS011;6349;50.904;6.136;2024-01-15T05:01:33;9.50;;;7.37;;
12567;SDS011;6349;50.904;6.136;2024-01-15T05:03:33;11.00;;;7.47;;
12567;SDS011;6349;50.904;6.136;2024-01-15T05:05:34;9.73;;;6.87;;
12567;SDS011;6349;50.904;6.136;2024-01-15T05:07:34;9.47;;;6.97;;
12567;SDS011;6349;50.904;6.136;2024-01-15T05:09:35;9.80;;;7.33;;
12567;SDS011;6349;50.904;6.136;2024-01-15T05:11:35;12.17;;;7.27;;
12567;SDS011;6349;50.904;6.136;2024-01-15T05:13:36;9.70;;;7.00;;
12567;SDS011;6349;50.904;6.136;2024-01-15T05:15:36;10.47;;;7.07;;
12567;SDS011;6349;50.904;6.136;2024-01-15T05:17:37;10.20;;;7.23;;
12567;SDS011;6349;50.904;6.136;2024-01-15T05:19:38;10.93;;;7.60;;
12567;SDS011;6349;50.904;6.136;2024-01-15T05:21:38;8.23;;;6.50;;
12567;SDS011;6349;50.904;6.136;2024-01-15T05:23:39;10.50;;;6.67;;
12567;SDS011;6349;50.904;6.136;2024-01-15T05:25:39;9.60;;;6.47;;
12567;SDS011;6349;50.904;6.136;2024-01-15T05:27:40;9.30;;;6.37;;
12567;SDS011;6349;50.904;6.136;2024-01-15T05:29:40;8.47;;;6.27;;
12567;SDS011;6349;50.904;6.136;2024-01-15T05:31:41;8.50;;;6.40;;
12567;SDS011;6349;50.904;6.136;2024-01-15T05:33:41;9.07;;;6.80;;
12567;SDS011;6349;50.904;6.136;2024-01-15T05:35:42;9.60;;;6.47;;
12567;SDS011;6349;50.904;6.136;2024-01-15T05:37:43;9.50;;;7.10;;
12567;SDS011;6349;50.904;6.136;2024-01-15T05:39:45;8.90;;;6.80;;
12567;SDS011;6349;50.904;6.136;2024-01-15T05:41:45;9.77;;;6.43;;
12567;SDS011;6349;50.904;6.136;2024-01-15T05:43:46;7.97;;;6.60;;
12567;SDS011;6349;50.904;6.136;2024-01-15T05:45:47;9.17;;;6.60;;
12567;SDS011;6349;50.904;6.136;2024-01-15T05:47:47;8.43;;;6.03;;
12567;SDS011;6349;50.904;6.136;2024-01-15T05:49:48;7.93;;;5.87;;
12567;SDS011;6349;50.904;6.136;2024-01-15T05:51:48;8.53;;;5.83;;
12567;SDS011;6349;50.904;6.136;2024-01-15T05:53:49;7.77;;;5.90;;
12567;SDS011;6349;50.904;6.136;2024-01-15T05:55:49;9.67;;;6.07;;
12567;SDS011;6349;50.904;6.136;2024-01-15T05:57:50;8.57;;;5.60;;
12567;SDS011;6349;50.904;6.136;2024-01-15T05:59:50;7.77;;;5.50;;
12567;SDS011;6349;50.904;6.136;2024-01-15T06:01:51;8.87;;;5.93;;
12567;SDS011;6349;50.904;6.136;2024-01-15T06:03:52;7.83;;;6.23;;
12567;SDS011;6349;50.904;6.136;2024-01-15T06:05:52;9.30;;;6.40;;
12567;SDS011;6349;50.904;6.136;2024-01-15T06:07:53;7.90;;;6.07;;
12567;SDS011;6349;50.904;6.136;2024-01-15T06:09:53;7.83;;;5.93;;
12567;SDS011;6349;50.904;6.136;2024-01-15T06:11:55;8.47;;;6.10;;
12567;SDS011;6349;50.904;6.136;2024-01-15T06:13:55;9.47;;;6.60;;
12567;SDS011;6349;50.904;6.136;2024-01-15T06:15:56;9.00;;;6.40;;
12567;SDS011;6349;50.904;6.136;2024-01-15T06:17:56;8.40;;;6.37;;
12567;SDS011;6349;50.904;6.136;2024-01-15T06:19:57;9.23;;;6.43;;
12567;SDS011;6349;50.904;6.136;2024-01-15T06:21:57;8.57;;;6.20;;
12567;SDS011;6349;50.904;6.136;2024-01-15T06:23:58;10.23;;;6.73;;
12567;SDS011;6349;50.904;6.136;2024-01-15T06:25:58;9.93;;;6.43;;
12567;SDS011;6349;50.904;6.136;2024-01-15T06:27:59;9.80;;;6.80;;
12567;SDS011;6349;50.904;6.136;2024-01-15T06:29:59;9.80;;;7.10;;
12567;SDS011;6349;50.904;6.136;2024-01-15T06:32:00;9.67;;;6.67;;
12567;SDS011;6349;50.904;6.136;2024-01-15T06:34:01;8.97;;;6.67;;
12567;SDS011;6349;50.904;6.136;2024-01-15T06:36:01;8.80;;;7.03;;
12567;SDS011;6349;50.904;6.136;2024-01-15T06:38:02;11.23;;;7.53;;
12567;SDS011;6349;50.904;6.136;2024-01-15T06:40:03;12.20;;;6.90;;
12567;SDS011;6349;50.904;6.136;2024-01-15T06:42:04;11.00;;;7.00;;
12567;SDS011;6349;50.904;6.136;2024-01-15T06:44:05;10.23;;;7.30;;
12567;SDS011;6349;50.904;6.136;2024-01-15T06:46:05;11.13;;;7.67;;
12567;SDS011;6349;50.904;6.136;2024-01-15T06:48:06;11.50;;;8.47;;
12567;SDS011;6349;50.904;6.136;2024-01-15T06:50:07;11.27;;;8.30;;
12567;SDS011;6349;50.904;6.136;2024-01-15T06:52:08;12.07;;;8.53;;
12567;SDS011;6349;50.904;6.136;2024-01-15T06:54:09;14.77;;;9.10;;
12567;SDS011;6349;50.904;6.136;2024-01-15T06:56:09;13.70;;;9.00;;
12567;SDS011;6349;50.904;6.136;2024-01-15T06:58:10;11.67;;;8.83;;
12567;SDS011;6349;50.904;6.136;2024-01-15T07:00:10;13.27;;;9.70;;
12567;SDS011;6349;50.904;6.136;2024-01-15T07:02:11;11.50;;;8.67;;
12567;SDS011;6349;50.904;6.136;2024-01-15T07:04:12;13.77;;;9.47;;
12567;SDS011;6349;50.904;6.136;2024-01-15T07:06:13;12.83;;;9.00;;
12567;SDS011;6349;50.904;6.136;2024-01-15T07:08:13;11.97;;;9.27;;
12567;SDS011;6349;50.904;6.136;2024-01-15T07:10:14;10.63;;;8.67;;
12567;SDS011;6349;50.904;6.136;2024-01-15T07:12:15;14.20;;;9.80;;
12567;SDS011;6349;50.904;6.136;2024-01-15T07:14:16;12.53;;;9.17;;
12567;SDS011;6349;50.904;6.136;2024-01-15T07:16:16;12.33;;;9.00;;
12567;SDS011;6349;50.904;6.136;2024-01-15T07:18:17;12.17;;;9.30;;
12567;SDS011;6349;50.904;6.136;2024-01-15T07:20:18;12.97;;;9.43;;
12567;SDS011;6349;50.904;6.136;2024-01-15T07:22:21;11.53;;;8.73;;
12567;SDS011;6349;50.904;6.136;2024-01-15T07:24:22;13.30;;;8.97;;
12567;SDS011;6349;50.904;6.136;2024-01-15T07:26:22;13.00;;;8.87;;
12567;SDS011;6349;50.904;6.136;2024-01-15T07:28:23;11.57;;;8.23;;
12567;SDS011;6349;50.904;6.136;2024-01-15T07:30:24;11.80;;;8.13;;
12567;SDS011;6349;50.904;6.136;2024-01-15T07:32:24;13.07;;;7.80;;
12567;SDS011;6349;50.904;6.136;2024-01-15T07:34:25;10.87;;;8.27;;
12567;SDS011;6349;50.904;6.136;2024-01-15T07:36:29;12.00;;;8.70;;
12567;SDS011;6349;50.904;6.136;2024-01-15T07:38:30;9.97;;;7.47;;
12567;SDS011;6349;50.904;6.136;2024-01-15T07:40:30;10.43;;;7.53;;
12567;SDS011;6349;50.904;6.136;2024-01-15T07:42:31;10.33;;;7.50;;
12567;SDS011;6349;50.904;6.136;2024-01-15T07:44:31;10.40;;;7.33;;
12567;SDS011;6349;50.904;6.136;2024-01-15T07:46:32;9.87;;;7.80;;
12567;SDS011;6349;50.904;6.136;2024-01-15T07:48:32;9.40;;;7.10;;
12567;SDS011;6349;50.904;6.136;2024-01-15T07:50:34;10.67;;;7.20;;
12567;SDS011;6349;50.904;6.136;2024-01-15T07:52:34;9.33;;;7.30;;
12567;SDS011;6349;50.904;6.136;2024-01-15T07:54:35;10.00;;;7.30;;
12567;SDS011;6349;50.904;6.136;2024-01-15T07:58:56;9.97;;;6.93;;
12567;SDS011;6349;50.904;6.136;2024-01-15T08:00:56;9.33;;;7.03;;
12567;SDS011;6349;50.904;6.136;2024-01-15T08:02:57;10.30;;;7.00;;
12567;SDS011;6349;50.904;6.136;2024-01-15T08:04:57;9.80;;;6.90;;
12567;SDS011;6349;50.904;6.136;2024-01-15T08:06:58;7.97;;;6.17;;
12567;SDS011;6349;50.904;6.136;2024-01-15T08:08:59;7.03;;;5.47;;
12567;SDS011;6349;50.904;6.136;2024-01-15T08:10:59;9.07;;;5.90;;
12567;SDS011;6349;50.904;6.136;2024-01-15T08:13:00;8.03;;;5.67;;
12567;SDS011;6349;50.904;6.136;2024-01-15T08:15:01;9.60;;;5.43;;
12567;SDS011;6349;50.904;6.136;2024-01-15T08:17:01;7.60;;;5.70;;
12567;SDS011;6349;50.904;6.136;2024-01-15T08:19:02;6.47;;;5.40;;
12567;SDS011;6349;50.904;6.136;2024-01-15T08:21:02;6.67;;;5.33;;
12567;SDS011;6349;50.904;6.136;2024-01-15T08:23:03;6.90;;;5.00;;
12567;SDS011;6349;50.904;6.136;2024-01-15T08:25:04;9.00;;;5.10;;
12567;SDS011;6349;50.904;6.136;2024-01-15T08:27:05;8.07;;;4.93;;
12567;SDS011;6349;50.904;6.136;2024-01-15T08:29:06;7.30;;;4.97;;
12567;SDS011;6349;50.904;6.136;2024-01-15T08:31:06;6.30;;;4.63;;
12567;SDS011;6349;50.904;6.136;2024-01-15T08:33:07;5.70;;;4.67;;
12567;SDS011;6349;50.904;6.136;2024-01-15T08:35:08;5.47;;;4.60;;
12567;SDS011;6349;50.904;6.136;2024-01-15T08:37:09;6.40;;;4.83;;
12567;SDS011;6349;50.904;6.136;2024-01-15T08:39:09;6.03;;;4.43;;
12567;SDS011;6349;50.904;6.136;2024-01-15T08:41:11;7.43;;;5.00;;
12567;SDS011;6349;50.904;6.136;2024-01-15T08:43:12;6.57;;;4.80;;
12567;SDS011;6349;50.904;6.136;2024-01-15T08:45:12;6.80;;;4.50;;
12567;SDS011;6349;50.904;6.136;2024-01-15T08:47:13;6.40;;;4.10;;
12567;SDS011;6349;50.904;6.136;2024-01-15T08:49:14;4.53;;;3.90;;
12567;SDS011;6349;50.904;6.136;2024-01-15T08:51:14;4.87;;;3.97;;
12567;SDS011;6349;50.904;6.136;2024-01-15T08:53:15;6.10;;;3.97;;
12567;SDS011;6349;50.904;6.136;2024-01-15T08:55:15;5.63;;;4.07;;
12567;SDS011;6349;50.904;6.136;2024-01-15T08:57:16;6.77;;;4.30;;
12567;SDS011;6349;50.904;6.136;2024-01-15T08:59:17;3.80;;;3.40;;
12567;SDS011;6349;50.904;6.136;2024-01-15T09:01:24;4.70;;;3.40;;
12567;SDS011;6349;50.904;6.136;2024-01-15T09:03:25;4.47;;;3.07;;
12567;SDS011;6349;50.904;6.136;2024-01-15T09:05:26;4.50;;;3.30;;
12567;SDS011;6349;50.904;6.136;2024-01-15T09:07:26;5.00;;;3.40;;
12567;SDS011;6349;50.904;6.136;2024-01-15T09:09:27;4.37;;;3.67;;
12567;SDS011;6349;50.904;6.136;2024-01-15T09:11:27;4.27;;;3.80;;
12567;SDS011;6349;50.904;6.136;2024-01-15T09:13:28;5.07;;;3.50;;
12567;SDS011;6349;50.904;6.136;2024-01-15T09:15:29;4.90;;;3.90;;
12567;SDS011;6349;50.904;6.136;2024-01-15T09:17:29;5.77;;;3.70;;
12567;SDS011;6349;50.904;6.136;2024-01-15T09:19:30;3.73;;;3.33;;
12567;SDS011;6349;50.904;6.136;2024-01-15T09:21:30;3.87;;;3.10;;
12567;SDS011;6349;50.904;6.136;2024-01-15T09:23:31;3.50;;;3.20;;
12567;SDS011;6349;50.904;6.136;2024-01-15T09:25:31;5.23;;;3.20;;
12567;SDS011;6349;50.904;6.136;2024-01-15T09:27:32;3.40;;;3.10;;
12567;SDS011;6349;50.904;6.136;2024-01-15T09:29:34;4.50;;;3.30;;
12567;SDS011;6349;50.904;6.136;2024-01-15T09:31:37;4.23;;;3.47;;
12567;SDS011;6349;50.904;6.136;2024-01-15T09:33:37;3.83;;;3.17;;
12567;SDS011;6349;50.904;6.136;2024-01-15T09:35:38;3.23;;;2.90;;
12567;SDS011;6349;50.904;6.136;2024-01-15T09:37:39;3.57;;;3.03;;
12567;SDS011;6349;50.904;6.136;2024-01-15T09:39:40;4.23;;;2.90;;
12567;SDS011;6349;50.904;6.136;2024-01-15T09:41:41;3.63;;;2.90;;
12567;SDS011;6349;50.904;6.136;2024-01-15T09:43:42;3.77;;;3.00;;
12567;SDS011;6349;50.904;6.136;2024-01-15T09:45:43;3.23;;;2.93;;
12567;SDS011;6349;50.904;6.136;2024-01-15T09:47:44;3.40;;;3.00;;
12567;SDS011;6349;50.904;6.136;2024-01-15T09:49:45;4.03;;;3.03;;
12567;SDS011;6349;50.904;6.136;2024-01-15T09:51:46;4.13;;;2.87;;
12567;SDS011;6349;50.904;6.136;2024-01-15T09:53:47;3.27;;;3.00;;
12567;SDS011;6349;50.904;6.136;2024-01-15T09:55:49;3.27;;;2.87;;
12567;SDS011;6349;50.904;6.136;2024-01-15T09:57:50;3.63;;;3.10;;
12567;SDS011;6349;50.904;6.136;2024-01-15T09:59:52;3.50;;;3.20;;
12567;SDS011;6349;50.904;6.136;2024-01-15T10:01:54;3.60;;;3.30;;
12567;SDS011;6349;50.904;6.136;2024-01-15T10:03:57;4.40;;;3.07;;
12567;SDS011;6349;50.904;6.136;2024-01-15T10:05:59;3.53;;;3.23;;
12567;SDS011;6349;50.904;6.136;2024-01-15T10:07:59;4.20;;;3.30;;
12567;SDS011;6349;50.904;6.136;2024-01-15T10:10:02;3.50;;;3.17;;
12567;SDS011;6349;50.904;6.136;2024-01-15T10:12:03;4.00;;;3.30;;
12567;SDS011;6349;50.904;6.136;2024-01-15T10:14:04;3.40;;;3.00;;
12567;SDS011;6349;50.904;6.136;2024-01-15T10:16:05;3.37;;;2.67;;
12567;SDS011;6349;50.904;6.136;2024-01-15T10:18:06;4.03;;;2.97;;
12567;SDS011;6349;50.904;6.136;2024-01-15T10:20:08;2.97;;;2.63;;
12567;SDS011;6349;50.904;6.136;2024-01-15T10:22:09;4.20;;;3.00;;
12567;SDS011;6349;50.904;6.136;2024-01-15T10:24:10;5.50;;;3.10;;
12567;SDS011;6349;50.904;6.136;2024-01-15T10:26:12;3.83;;;2.80;;
12567;SDS011;6349;50.904;6.136;2024-01-15T10:28:13;3.37;;;2.90;;
12567;SDS011;6349;50.904;6.136;2024-01-15T10:30:13;4.07;;;2.93;;
12567;SDS011;6349;50.904;6.136;2024-01-15T10:32:14;4.73;;;3.10;;
12567;SDS011;6349;50.904;6.136;2024-01-15T10:34:15;4.70;;;3.50;;
12567;SDS011;6349;50.904;6.136;2024-01-15T10:36:16;4.47;;;3.03;;
12567;SDS011;6349;50.904;6.136;2024-01-15T10:38:17;4.40;;;3.00;;
12567;SDS011;6349;50.904;6.136;2024-01-15T10:40:22;4.80;;;3.27;;
12567;SDS011;6349;50.904;6.136;2024-01-15T10:42:23;5.43;;;3.03;;
12567;SDS011;6349;50.904;6.136;2024-01-15T10:44:23;5.30;;;3.10;;
12567;SDS011;6349;50.904;6.136;2024-01-15T10:46:25;4.33;;;2.70;;
12567;SDS011;6349;50.904;6.136;2024-01-15T10:48:26;4.23;;;2.70;;
12567;SDS011;6349;50.904;6.136;2024-01-15T10:50:28;4.10;;;2.83;;
12567;SDS011;6349;50.904;6.136;2024-01-15T10:52:30;6.30;;;3.00;;
12567;SDS011;6349;50.904;6.136;2024-01-15T10:54:31;4.60;;;3.10;;
12567;SDS011;6349;50.904;6.136;2024-01-15T10:56:32;4.83;;;3.03;;
12567;SDS011;6349;50.904;6.136;2024-01-15T10:58:33;4.20;;;2.80;;
12567;SDS011;6349;50.904;6.136;2024-01-15T11:00:35;4.67;;;3.20;;
12567;SDS011;6349;50.904;6.136;2024-01-15T11:02:39;3.33;;;2.83;;
12567;SDS011;6349;50.904;6.136;2024-01-15T11:04:39;5.03;;;3.13;;
12567;SDS011;6349;50.904;6.136;2024-01-15T11:06:41;4.37;;;2.70;;
12567;SDS011;6349;50.904;6.136;2024-01-15T11:08:44;3.73;;;2.93;;
12567;SDS011;6349;50.904;6.136;2024-01-15T11:10:46;6.23;;;2.97;;
12567;SDS011;6349;50.904;6.136;2024-01-15T11:12:49;4.90;;;2.70;;
12567;SDS011;6349;50.904;6.136;2024-01-15T11:14:50;4.87;;;2.73;;
12567;SDS011;6349;50.904;6.136;2024-01-15T11:16:55;4.27;;;2.67;;
12567;SDS011;6349;50.904;6.136;2024-01-15T11:25:46;6.60;;;2.63;;
12567;SDS011;6349;50.904;6.136;2024-01-15T11:27:47;4.67;;;2.80;;
12567;SDS011;6349;50.904;6.136;2024-01-15T11:30:02;6.77;;;2.60;;
12567;SDS011;6349;50.904;6.136;2024-01-15T11:32:05;4.07;;;2.40;;
12567;SDS011;6349;50.904;6.136;2024-01-15T11:34:10;9.67;;;2.70;;
12567;SDS011;6349;50.904;6.136;2024-01-15T11:36:11;3.27;;;2.60;;
12567;SDS011;6349;50.904;6.136;2024-01-15T11:38:11;5.30;;;2.30;;
12567;SDS011;6349;50.904;6.136;2024-01-15T11:40:12;3.27;;;2.40;;
12567;SDS011;6349;50.904;6.136;2024-01-15T11:42:14;5.83;;;2.40;;
12567;SDS011;6349;50.904;6.136;2024-01-15T11:44:15;3.20;;;2.40;;
12567;SDS011;6349;50.904;6.136;2024-01-15T11:46:16;4.07;;;2.40;;
12567;SDS011;6349;50.904;6.136;2024-01-15T11:48:18;5.43;;;2.47;;
12567;SDS011;6349;50.904;6.136;2024-01-15T11:50:19;4.00;;;2.60;;
12567;SDS011;6349;50.904;6.136;2024-01-15T11:52:21;3.43;;;2.23;;
12567;SDS011;6349;50.904;6.136;2024-01-15T11:54:23;4.50;;;2.57;;
12567;SDS011;6349;50.904;6.136;2024-01-15T11:56:25;3.47;;;2.07;;
12567;SDS011;6349;50.904;6.136;2024-01-15T11:58:26;4.10;;;2.30;;
12567;SDS011;6349;50.904;6.136;2024-01-15T12:00:27;6.27;;;2.33;;
12567;SDS011;6349;50.904;6.136;2024-01-15T12:02:28;4.40;;;2.53;;
12567;SDS011;6349;50.904;6.136;2024-01-15T12:04:29;3.87;;;2.37;;
12567;SDS011;6349;50.904;6.136;2024-01-15T12:06:29;5.27;;;2.33;;
12567;SDS011;6349;50.904;6.136;2024-01-15T12:08:30;2.17;;;1.80;;
12567;SDS011;6349;50.904;6.136;2024-01-15T12:10:30;4.83;;;2.37;;
12567;SDS011;6349;50.904;6.136;2024-01-15T12:14:55;6.17;;;2.33;;
12567;SDS011;6349;50.904;6.136;2024-01-15T12:16:56;3.90;;;2.20;;
12567;SDS011;6349;50.904;6.136;2024-01-15T12:18:56;4.77;;;2.27;;
12567;SDS011;6349;50.904;6.136;2024-01-15T12:20:57;4.33;;;1.97;;
12567;SDS011;6349;50.904;6.136;2024-01-15T12:22:58;5.17;;;2.30;;
12567;SDS011;6349;50.904;6.136;2024-01-15T12:24:59;3.27;;;1.87;;
12567;SDS011;6349;50.904;6.136;2024-01-15T12:27:00;1.73;;;1.63;;